Loudon, New Hampshire
Current Conditions -  °F | °C
As of 7:51 PM on Saturday 25 Oct 2014 (Local Time) from KCON Reporting Station
Overcast Overcast  
Wind Chill: 54°   Ceiling: 7000
Heat Index: 54°   Visibility: 10mi
Dew Point: 43°   Wind: 3mph
Humidity: 66%   Direction: 190°S
Pressure: 29.55"   Gusts: NA
Location:  43.18°N, 71.56°W
Report Text: KCON 252351Z AUTO 19003KT 10SM OVC070 12/06 A2955 RMK AO2 SLP010 T01220061 10189 20122 58003
Loading
Personal Weather Stations






























Interactive Weather Map New forecast layout! Learn more

10-Day Weather Forecast

Advertisements
Track Severe Weather on mobile